createdAt,value
2016-05-24T00:00:02.979Z,53.03
2016-05-24T00:01:03.013Z,52.65
2016-05-24T00:02:03.547Z,52.94
2016-05-24T00:03:03.144Z,52.65
2016-05-24T00:04:03.178Z,52.65
2016-05-24T00:05:03.212Z,52.75
2016-05-24T00:06:03.136Z,53.03
2016-05-24T00:07:03.342Z,52.84
2016-05-24T00:08:03.375Z,52.75
2016-05-24T00:09:03.441Z,53.03
2016-05-24T00:10:03.475Z,52.94
2016-05-24T00:11:03.525Z,53.03
2016-05-24T00:12:03.449Z,52.75
2016-05-24T00:13:03.670Z,53.03
2016-05-24T00:14:03.705Z,52.84
2016-05-24T00:15:03.597Z,52.55
2016-05-24T00:16:03.803Z,52.65
2016-05-24T00:17:03.838Z,52.65
2016-05-24T00:18:03.903Z,52.46
2016-05-24T00:19:03.968Z,53.03
2016-05-24T00:20:03.986Z,53.03
2016-05-24T00:21:04.052Z,52.55
2016-05-24T00:22:04.102Z,53.03
2016-05-24T00:23:04.166Z,52.84
2016-05-24T00:24:04.216Z,52.94
2016-05-24T00:25:04.249Z,52.75
2016-05-24T00:26:04.299Z,52.94
2016-05-24T00:27:04.364Z,52.75
2016-05-24T00:28:04.399Z,53.03
2016-05-24T00:29:04.448Z,53.13
2016-05-24T00:30:04.560Z,52.55
2016-05-24T00:31:04.578Z,52.84
2016-05-24T00:32:04.613Z,52.75
2016-05-24T00:33:04.677Z,52.65
2016-05-24T00:34:04.727Z,52.94
2016-05-24T00:35:04.776Z,52.94
2016-05-24T00:36:04.810Z,52.94
2016-05-24T00:37:04.859Z,52.75
2016-05-24T00:38:04.940Z,52.65
2016-05-24T00:39:04.975Z,53.03
2016-05-24T00:40:05.025Z,52.84
2016-05-24T00:41:05.090Z,53.13
2016-05-24T00:42:05.139Z,52.94
2016-05-24T00:43:05.173Z,52.94
2016-05-24T00:44:05.238Z,52.94
2016-05-24T00:45:05.303Z,52.84
2016-05-24T00:46:05.322Z,53.03
2016-05-24T00:47:05.387Z,53.13
2016-05-24T00:48:05.421Z,52.94
2016-05-24T00:49:05.486Z,52.84
2016-05-24T00:50:05.536Z,52.84
2016-05-24T00:51:05.570Z,53.13
2016-05-24T00:52:05.650Z,52.94
2016-05-24T00:53:05.700Z,52.94
2016-05-24T00:54:05.733Z,52.94
2016-05-24T00:55:05.799Z,52.94
2016-05-24T00:56:05.708Z,52.94
2016-05-24T00:57:05.899Z,52.84
2016-05-24T00:58:05.948Z,53.13
2016-05-24T00:59:06.013Z,52.94
2016-05-24T01:00:06.046Z,53.03
2016-05-24T01:01:06.123Z,52.94
2016-05-24T01:02:06.029Z,52.75
2016-05-24T01:03:06.279Z,52.94
2016-05-24T01:04:06.357Z,52.84
2016-05-24T01:05:06.434Z,52.65
2016-05-24T01:06:06.505Z,52.75
2016-05-24T01:07:06.565Z,52.65
2016-05-24T01:08:06.624Z,52.65
2016-05-24T01:09:06.669Z,53.13
2016-05-24T01:10:06.760Z,52.65
2016-05-24T01:11:06.802Z,52.84
2016-05-24T01:12:06.698Z,53.03
2016-05-24T01:13:06.924Z,52.55
2016-05-24T01:14:06.977Z,53.03
2016-05-24T01:15:07.046Z,52.75
2016-05-24T01:16:07.068Z,52.94
2016-05-24T01:17:07.133Z,52.84
2016-05-24T01:18:07.200Z,52.46
2016-05-24T01:19:07.220Z,52.55
2016-05-24T01:20:07.285Z,52.17
2016-05-24T01:21:07.352Z,52.26
2016-05-24T01:22:07.402Z,52.26
2016-05-24T01:23:07.420Z,52.17
2016-05-24T01:24:07.502Z,52.36
2016-05-24T01:25:07.551Z,52.26
2016-05-24T01:26:07.602Z,52.17
2016-05-24T01:27:07.635Z,52.08
2016-05-24T01:28:07.686Z,52.17
2016-05-24T01:29:07.766Z,51.98
2016-05-24T01:30:07.926Z,52.55
2016-05-24T01:31:07.835Z,52.75
2016-05-24T01:32:07.917Z,52.75
2016-05-24T01:33:07.967Z,52.84
2016-05-24T01:34:08.000Z,52.17
2016-05-24T01:35:08.080Z,52.26
2016-05-24T01:36:08.130Z,52.08
2016-05-24T01:37:08.163Z,52.36
2016-05-24T01:38:08.214Z,52.26
2016-05-24T01:39:08.264Z,52.08
2016-05-24T01:40:08.328Z,52.17
2016-05-24T01:41:08.394Z,52.08
2016-05-24T01:42:08.412Z,52.08
2016-05-24T01:43:08.477Z,52.08
2016-05-24T01:44:08.526Z,52.26
2016-05-24T01:45:08.452Z,52.08
2016-05-24T01:46:08.626Z,52.26
2016-05-24T01:47:08.676Z,52.17
2016-05-24T01:48:08.724Z,52.17
2016-05-24T01:49:08.774Z,52.17
2016-05-24T01:50:08.840Z,52.08
2016-05-24T01:51:08.874Z,52.26
2016-05-24T01:52:08.923Z,52.26
2016-05-24T01:53:08.988Z,52.36
2016-05-24T01:54:08.881Z,52.17
2016-05-24T01:55:09.072Z,52.46
2016-05-24T01:56:09.153Z,52.36
2016-05-24T01:57:09.187Z,51.98
2016-05-24T01:58:09.236Z,52.36
2016-05-24T01:59:09.301Z,52.36
2016-05-24T02:00:09.351Z,52.46
2016-05-24T02:01:09.385Z,52.36
2016-05-24T02:02:09.450Z,52.36
2016-05-24T02:03:09.515Z,52.46
2016-05-24T02:04:09.533Z,52.55
2016-05-24T02:05:09.614Z,52.46
2016-05-24T02:06:09.632Z,52.17
2016-05-24T02:07:09.698Z,51.59
2016-05-24T02:08:09.764Z,51.59
2016-05-24T02:09:09.781Z,52.36
2016-05-24T02:10:09.846Z,52.36
2016-05-24T02:11:09.911Z,51.98
2016-05-24T02:12:09.946Z,52.55
2016-05-24T02:13:09.996Z,51.59
2016-05-24T02:14:10.077Z,51.79
2016-05-24T02:15:10.141Z,51.79
2016-05-24T02:16:10.144Z,51.88
2016-05-24T02:17:10.224Z,51.69
2016-05-24T02:18:10.259Z,51.79
2016-05-24T02:19:10.168Z,51.79
2016-05-24T02:20:10.357Z,51.59
2016-05-24T02:21:10.408Z,51.69
2016-05-24T02:22:10.473Z,51.5
2016-05-24T02:23:10.506Z,51.69
2016-05-24T02:24:10.400Z,51.5
2016-05-24T02:25:10.621Z,51.69
2016-05-24T02:26:10.687Z,51.59
2016-05-24T02:27:10.720Z,51.5
2016-05-24T02:28:10.770Z,51.59
2016-05-24T02:29:10.835Z,51.31
2016-05-24T02:30:10.713Z,51.4
2016-05-24T02:31:10.919Z,51.11
2016-05-24T02:32:10.968Z,51.21
2016-05-24T02:33:11.020Z,51.59
2016-05-24T02:34:11.085Z,51.21
2016-05-24T02:35:11.120Z,51.21
2016-05-24T02:36:11.185Z,51.31
2016-05-24T02:37:11.234Z,51.47
2016-05-24T02:38:11.283Z,51.21
2016-05-24T02:39:11.349Z,51.4
2016-05-24T02:40:11.383Z,51.02
2016-05-24T02:41:11.449Z,51.02
2016-05-24T02:42:11.483Z,51.18
2016-05-24T02:43:11.532Z,51.69
2016-05-24T02:44:11.596Z,51.57
2016-05-24T02:45:12.146Z,51.18
2016-05-24T02:46:11.758Z,51.57
2016-05-24T02:47:11.746Z,51.69
2016-05-24T02:48:11.874Z,51.18
2016-05-24T02:49:11.845Z,51.67
2016-05-24T02:50:11.957Z,51.09
2016-05-24T02:51:12.006Z,51.18
2016-05-24T02:52:12.009Z,51.18
2016-05-24T02:53:12.059Z,51.57
2016-05-24T02:54:11.952Z,51.09
2016-05-24T02:55:12.142Z,51.18
2016-05-24T02:56:12.051Z,51.18
2016-05-24T02:57:12.242Z,51.09
2016-05-24T02:58:12.291Z,51.18
2016-05-24T02:59:12.356Z,51.28
2016-05-24T03:00:12.843Z,51.28
2016-05-24T03:01:12.455Z,51.28
2016-05-24T03:02:12.505Z,51.28
2016-05-24T03:03:12.570Z,51.18
2016-05-24T03:04:12.620Z,51.4
2016-05-24T03:05:12.669Z,51.09
2016-05-24T03:06:12.719Z,51.31
2016-05-24T03:07:12.769Z,51.47
2016-05-24T03:08:12.802Z,51.11
2016-05-24T03:09:12.852Z,51.18
2016-05-24T03:10:12.917Z,50.9
2016-05-24T03:11:12.966Z,50.8
2016-05-24T03:12:13.016Z,50.8
2016-05-24T03:13:12.924Z,51.18
2016-05-24T03:14:13.130Z,51.18
2016-05-24T03:15:13.133Z,50.9
2016-05-24T03:16:13.074Z,51.18
2016-05-24T03:17:13.124Z,50.8
2016-05-24T03:18:13.329Z,51.09
2016-05-24T03:19:13.362Z,50.9
2016-05-24T03:20:13.428Z,50.9
2016-05-24T03:21:13.462Z,50.9
2016-05-24T03:22:13.527Z,51.09
2016-05-24T03:23:13.577Z,51.09
2016-05-24T03:24:13.642Z,51.18
2016-05-24T03:25:13.676Z,50.99
2016-05-24T03:26:13.741Z,50.99
2016-05-24T03:27:13.806Z,50.99
2016-05-24T03:28:13.840Z,50.9
2016-05-24T03:29:13.890Z,50.9
2016-05-24T03:30:13.783Z,50.99
2016-05-24T03:31:13.989Z,50.7
2016-05-24T03:32:14.039Z,50.99
2016-05-24T03:33:14.088Z,50.51
2016-05-24T03:34:14.137Z,50.9
2016-05-24T03:35:14.187Z,50.99
2016-05-24T03:36:14.252Z,50.61
2016-05-24T03:37:14.303Z,50.9
2016-05-24T03:38:14.367Z,50.9
2016-05-24T03:39:14.401Z,50.8
2016-05-24T03:40:14.450Z,50.7
2016-05-24T03:41:14.516Z,50.8
2016-05-24T03:42:14.549Z,50.51
2016-05-24T03:43:14.600Z,50.61
2016-05-24T03:44:14.664Z,50.61
2016-05-24T03:45:14.746Z,50.8
2016-05-24T03:46:14.591Z,50.9
2016-05-24T03:47:14.797Z,50.7
2016-05-24T03:48:14.862Z,50.32
2016-05-24T03:49:14.741Z,50.32
2016-05-24T03:50:14.790Z,50.9
2016-05-24T03:51:15.027Z,50.99
2016-05-24T03:52:14.904Z,51.09
2016-05-24T03:53:14.955Z,50.32
2016-05-24T03:54:15.160Z,50.51
2016-05-24T03:55:15.226Z,50.61
2016-05-24T03:56:15.259Z,50.7
2016-05-24T03:57:15.309Z,50.7
2016-05-24T03:58:15.374Z,50.8
2016-05-24T03:59:15.392Z,50.7
2016-05-24T04:00:16.364Z,50.61
2016-05-24T04:01:15.523Z,50.23
2016-05-24T04:02:15.572Z,50.23
2016-05-24T04:03:15.622Z,50.51
2016-05-24T04:04:15.656Z,50.8
2016-05-24T04:05:15.721Z,50.61
2016-05-24T04:06:15.802Z,50.7
2016-05-24T04:07:15.648Z,50.61
2016-05-24T04:08:15.869Z,50.32
2016-05-24T04:09:15.935Z,50.32
2016-05-24T04:10:15.984Z,50.42
2016-05-24T04:11:16.019Z,50.42
2016-05-24T04:12:16.083Z,50.23
2016-05-24T04:13:16.117Z,50.23
2016-05-24T04:14:16.026Z,50.23
2016-05-24T04:15:16.091Z,50.23
2016-05-24T04:16:16.283Z,50.32
2016-05-24T04:17:16.347Z,50.32
2016-05-24T04:18:16.381Z,50.23
2016-05-24T04:19:16.446Z,50.42
2016-05-24T04:20:16.495Z,50.13
2016-05-24T04:21:16.546Z,50.23
2016-05-24T04:22:16.579Z,50.42
2016-05-24T04:23:16.644Z,50.32
2016-05-24T04:24:16.694Z,49.93
2016-05-24T04:25:16.728Z,50.42
2016-05-24T04:26:16.809Z,50.23
2016-05-24T04:27:16.826Z,50.32
2016-05-24T04:28:16.908Z,50.23
2016-05-24T04:29:16.942Z,50.32
2016-05-24T04:30:17.538Z,50.61
2016-05-24T04:31:17.056Z,50.32
2016-05-24T04:32:17.106Z,50.42
2016-05-24T04:33:17.156Z,50.23
2016-05-24T04:34:17.206Z,50.61
2016-05-24T04:35:17.270Z,50.51
2016-05-24T04:36:17.304Z,50.23
2016-05-24T04:37:17.353Z,50.42
2016-05-24T04:38:17.403Z,50.32
2016-05-24T04:39:17.453Z,50.23
2016-05-24T04:40:17.519Z,50.51
2016-05-24T04:41:17.567Z,50.23
2016-05-24T04:42:17.586Z,50.13
2016-05-24T04:43:17.651Z,50.23
2016-05-24T04:44:17.717Z,50.42
2016-05-24T04:45:17.750Z,50.23
2016-05-24T04:46:17.816Z,50.32
2016-05-24T04:47:17.865Z,50.42
2016-05-24T04:48:17.899Z,49.93
2016-05-24T04:49:17.963Z,50.23
2016-05-24T04:50:18.092Z,50.03
2016-05-24T04:51:18.080Z,50.42
2016-05-24T04:52:18.113Z,50.13
2016-05-24T04:53:18.162Z,49.84
2016-05-24T04:54:18.227Z,49.93
2016-05-24T04:55:18.262Z,49.93
2016-05-24T04:56:18.327Z,50.13
2016-05-24T04:57:18.377Z,50.03
2016-05-24T04:58:18.442Z,50.13
2016-05-24T04:59:18.475Z,49.74
2016-05-24T05:00:18.729Z,50.03
2016-05-24T05:01:18.606Z,50.13
2016-05-24T05:02:18.624Z,50.13
2016-05-24T05:03:18.674Z,50.32
2016-05-24T05:04:18.723Z,50.32
2016-05-24T05:05:18.773Z,50.03
2016-05-24T05:06:18.838Z,50.13
2016-05-24T05:07:18.872Z,50.03
2016-05-24T05:08:18.937Z,49.93
2016-05-24T05:09:18.987Z,49.93
2016-05-24T05:10:19.036Z,50.13
2016-05-24T05:11:19.102Z,50.13
2016-05-24T05:12:19.136Z,50.32
2016-05-24T05:13:19.186Z,50.32
2016-05-24T05:14:19.235Z,50.23
2016-05-24T05:15:19.941Z,49.84
2016-05-24T05:16:19.177Z,50.03
2016-05-24T05:17:19.227Z,50.03
2016-05-24T05:18:19.292Z,50.13
2016-05-24T05:19:19.499Z,49.74
2016-05-24T05:20:19.547Z,49.36
2016-05-24T05:21:19.613Z,49.65
2016-05-24T05:22:19.491Z,49.36
2016-05-24T05:23:19.697Z,49.46
2016-05-24T05:24:19.745Z,49.26
2016-05-24T05:25:19.811Z,49.74
2016-05-24T05:26:19.846Z,49.55
2016-05-24T05:27:19.895Z,49.55
2016-05-24T05:28:19.787Z,49.36
2016-05-24T05:29:19.993Z,49.65
2016-05-24T05:30:19.996Z,49.36
2016-05-24T05:31:20.093Z,49.46
2016-05-24T05:32:20.158Z,49.36
2016-05-24T05:33:20.208Z,49.36
2016-05-24T05:34:20.257Z,49.17
2016-05-24T05:35:20.306Z,49.46
2016-05-24T05:36:20.357Z,49.36
2016-05-24T05:37:20.406Z,49.36
2016-05-24T05:38:20.314Z,49.26
2016-05-24T05:39:20.520Z,49.46
2016-05-24T05:40:20.555Z,49.17
2016-05-24T05:41:20.620Z,49.36
2016-05-24T05:42:20.669Z,49.36
2016-05-24T05:43:20.578Z,49.46
2016-05-24T05:44:20.769Z,49.36
2016-05-24T05:45:20.818Z,49.55
2016-05-24T05:46:20.883Z,49.55
2016-05-24T05:47:20.932Z,49.26
2016-05-24T05:48:20.966Z,49.36
2016-05-24T05:49:21.033Z,49.26
2016-05-24T05:50:21.066Z,49.07
2016-05-24T05:51:21.116Z,49.17
2016-05-24T05:52:21.196Z,49.36
2016-05-24T05:53:21.230Z,49.26
2016-05-24T05:54:21.263Z,49.46
2016-05-24T05:55:21.329Z,49.07
2016-05-24T05:56:21.379Z,49.07
2016-05-24T05:57:21.413Z,48.88
2016-05-24T05:58:21.478Z,48.88
2016-05-24T05:59:21.527Z,49.07
2016-05-24T06:00:21.421Z,49.17
2016-05-24T06:01:21.626Z,49.15
2016-05-24T06:02:21.692Z,49.07
2016-05-24T06:03:21.725Z,48.97
2016-05-24T06:04:21.776Z,48.97
2016-05-24T06:05:21.684Z,48.97
2016-05-24T06:06:21.875Z,48.97
2016-05-24T06:07:21.923Z,48.97
2016-05-24T06:08:21.973Z,48.97
2016-05-24T06:09:22.038Z,48.88
2016-05-24T06:10:22.103Z,48.79
2016-05-24T06:11:22.154Z,49.26
2016-05-24T06:12:22.203Z,49.36
2016-05-24T06:13:22.268Z,48.88
2016-05-24T06:14:23.381Z,48.79
2016-05-24T06:15:22.180Z,48.79
2016-05-24T06:16:22.463Z,48.88
2016-05-24T06:17:22.435Z,48.88
2016-05-24T06:18:22.485Z,49.07
2016-05-24T06:19:22.394Z,49.07
2016-05-24T06:20:22.600Z,48.88
2016-05-24T06:21:22.649Z,48.79
2016-05-24T06:22:22.699Z,48.97
2016-05-24T06:23:22.748Z,49.36
2016-05-24T06:24:22.798Z,48.97
2016-05-24T06:25:22.863Z,48.69
2016-05-24T06:26:22.897Z,48.59
2016-05-24T06:27:22.962Z,48.69
2016-05-24T06:28:23.012Z,48.69
2016-05-24T06:29:23.046Z,48.69
2016-05-24T06:30:23.189Z,48.79
2016-05-24T06:31:23.160Z,48.88
2016-05-24T06:32:23.195Z,48.97
2016-05-24T06:33:23.244Z,48.69
2016-05-24T06:34:23.309Z,48.66
2016-05-24T06:35:23.359Z,48.57
2016-05-24T06:36:23.409Z,48.97
2016-05-24T06:37:23.458Z,48.59
2016-05-24T06:38:23.507Z,48.79
2016-05-24T06:39:23.557Z,48.49
2016-05-24T06:40:23.607Z,48.79
2016-05-24T06:41:23.656Z,48.85
2016-05-24T06:42:23.721Z,48.85
2016-05-24T06:43:23.599Z,48.66
2016-05-24T06:44:23.820Z,48.66
2016-05-24T06:45:24.245Z,48.76
2016-05-24T06:46:23.920Z,48.69
2016-05-24T06:47:23.969Z,48.59
2016-05-24T06:48:24.050Z,48.88
2016-05-24T06:49:24.084Z,49.05
2016-05-24T06:50:24.134Z,48.57
2016-05-24T06:51:24.183Z,48.76
2016-05-24T06:52:24.233Z,48.79
2016-05-24T06:53:24.282Z,48.66
2016-05-24T06:54:24.332Z,48.79
2016-05-24T06:55:24.413Z,48.66
2016-05-24T06:56:24.430Z,49.07
2016-05-24T06:57:24.480Z,48.79
2016-05-24T06:58:24.655Z,48.76
2016-05-24T06:59:24.580Z,48.97
2016-05-24T07:00:24.849Z,48.69
2016-05-24T07:01:24.679Z,48.66
2016-05-24T07:02:24.744Z,48.79
2016-05-24T07:03:24.793Z,48.88
2016-05-24T07:04:24.827Z,48.69
2016-05-24T07:05:24.877Z,48.85
2016-05-24T07:06:24.770Z,48.85
2016-05-24T07:07:24.976Z,48.79
2016-05-24T07:08:24.885Z,48.76
2016-05-24T07:09:25.076Z,48.85
2016-05-24T07:10:24.984Z,48.76
2016-05-24T07:11:25.034Z,48.57
2016-05-24T07:12:25.240Z,48.66
2016-05-24T07:13:25.149Z,48.79
2016-05-24T07:14:25.339Z,48.85
2016-05-24T07:15:25.388Z,48.57
2016-05-24T07:16:25.453Z,48.47
2016-05-24T07:17:25.503Z,48.76
2016-05-24T07:18:25.521Z,48.85
2016-05-24T07:19:25.586Z,48.66
2016-05-24T07:20:25.495Z,48.69
2016-05-24T07:21:25.561Z,48.66
2016-05-24T07:22:25.766Z,48.47
2016-05-24T07:23:25.800Z,48.76
2016-05-24T07:24:25.866Z,48.76
2016-05-24T07:25:25.759Z,48.76
2016-05-24T07:26:25.949Z,48.76
2016-05-24T07:27:25.999Z,48.66
2016-05-24T07:28:26.049Z,48.76
2016-05-24T07:29:25.941Z,48.76
2016-05-24T07:30:26.147Z,48.66
2016-05-24T07:31:26.196Z,48.57
2016-05-24T07:32:26.262Z,48.85
2016-05-24T07:33:26.405Z,48.95
2016-05-24T07:34:26.362Z,48.28
2016-05-24T07:35:26.426Z,48.76
2016-05-24T07:36:26.460Z,48.57
2016-05-24T07:37:26.573Z,48.57
2016-05-24T07:38:26.560Z,48.85
2016-05-24T07:39:26.625Z,48.47
2016-05-24T07:40:26.659Z,48.66
2016-05-24T07:41:26.567Z,48.57
2016-05-24T07:42:26.773Z,48.85
2016-05-24T07:43:26.807Z,48.66
2016-05-24T07:44:26.872Z,48.76
2016-05-24T07:45:27.423Z,48.57
2016-05-24T07:46:26.956Z,48.76
2016-05-24T07:47:27.021Z,48.76
2016-05-24T07:48:27.165Z,48.76
2016-05-24T07:49:27.198Z,48.76
2016-05-24T07:50:27.248Z,48.66
2016-05-24T07:51:27.220Z,48.85
2016-05-24T07:52:27.269Z,48.95
2016-05-24T07:53:27.163Z,48.66
2016-05-24T07:54:27.383Z,48.47
2016-05-24T07:55:27.418Z,49.05
2016-05-24T07:56:27.483Z,48.66
2016-05-24T07:57:27.533Z,48.76
2016-05-24T07:58:27.582Z,48.66
2016-05-24T07:59:27.632Z,48.66
2016-05-24T08:00:27.759Z,48.66
2016-05-24T08:01:27.715Z,48.66
2016-05-24T08:02:27.765Z,48.95
2016-05-24T08:03:27.674Z,48.57
2016-05-24T08:04:27.989Z,48.76
2016-05-24T08:05:27.773Z,48.76
2016-05-24T08:06:27.979Z,48.95
2016-05-24T08:07:28.043Z,48.76
2016-05-24T08:08:28.093Z,48.76
2016-05-24T08:09:28.127Z,48.76
2016-05-24T08:10:28.177Z,48.85
2016-05-24T08:11:28.242Z,48.85
2016-05-24T08:12:28.276Z,48.76
2016-05-24T08:13:28.342Z,48.66
2016-05-24T08:14:28.469Z,48.57
2016-05-24T08:15:28.268Z,48.76
2016-05-24T08:16:28.490Z,48.47
2016-05-24T08:17:28.540Z,48.76
2016-05-24T08:18:28.589Z,48.85
2016-05-24T08:19:28.653Z,48.76
2016-05-24T08:20:28.797Z,48.76
2016-05-24T08:21:28.754Z,48.66
2016-05-24T08:22:28.834Z,48.66
2016-05-24T08:23:28.931Z,48.76
2016-05-24T08:24:28.887Z,48.76
2016-05-24T08:25:28.952Z,48.76
2016-05-24T08:26:29.001Z,48.76
2016-05-24T08:27:29.097Z,48.76
2016-05-24T08:28:29.194Z,48.76
2016-05-24T08:29:29.150Z,48.76
2016-05-24T08:30:31.418Z,48.85
2016-05-24T08:31:29.249Z,48.47
2016-05-24T08:32:29.346Z,48.76
2016-05-24T08:33:29.207Z,48.76
2016-05-24T08:34:29.241Z,48.85
2016-05-24T08:35:29.447Z,48.57
2016-05-24T08:36:29.513Z,48.66
2016-05-24T08:37:29.562Z,48.57
2016-05-24T08:38:29.596Z,48.66
2016-05-24T08:39:29.661Z,48.76
2016-05-24T08:40:30.804Z,48.66
2016-05-24T08:41:29.932Z,48.95
2016-05-24T08:42:29.826Z,48.76
2016-05-24T08:43:29.876Z,48.66
2016-05-24T08:44:29.909Z,48.76
2016-05-24T08:45:30.224Z,48.76
2016-05-24T08:46:30.008Z,48.76
2016-05-24T08:47:30.214Z,48.76
2016-05-24T08:48:30.106Z,48.66
2016-05-24T08:49:30.188Z,48.76
2016-05-24T08:50:30.207Z,48.66
2016-05-24T08:51:30.272Z,48.76
2016-05-24T08:52:30.336Z,48.57
2016-05-24T08:53:30.433Z,48.76
2016-05-24T08:54:30.483Z,48.95
2016-05-24T08:55:30.469Z,48.47
2016-05-24T08:56:30.551Z,48.76
2016-05-24T08:57:30.413Z,48.57
2016-05-24T08:58:30.634Z,48.85
2016-05-24T08:59:30.668Z,48.76
2016-05-24T09:00:30.811Z,48.66
2016-05-24T09:01:30.783Z,48.57
2016-05-24T09:02:30.816Z,48.76
2016-05-24T09:03:30.867Z,48.76
2016-05-24T09:04:30.760Z,48.76
2016-05-24T09:05:31.074Z,48.76
2016-05-24T09:06:31.046Z,48.76
2016-05-24T09:07:31.096Z,48.66
2016-05-24T09:08:30.974Z,48.76
2016-05-24T09:09:31.195Z,48.76
2016-05-24T09:10:31.229Z,48.85
2016-05-24T09:11:31.279Z,48.95
2016-05-24T09:12:31.344Z,48.76
2016-05-24T09:13:31.378Z,48.76
2016-05-24T09:14:31.443Z,48.76
2016-05-24T09:15:31.993Z,48.76
2016-05-24T09:16:31.636Z,48.66
2016-05-24T09:17:31.435Z,48.76
2016-05-24T09:18:31.687Z,48.76
2016-05-24T09:19:31.690Z,48.57
2016-05-24T09:20:31.740Z,48.47
2016-05-24T09:21:31.790Z,48.85
2016-05-24T09:22:31.964Z,48.85
2016-05-24T09:23:31.905Z,49.24
2016-05-24T09:24:31.923Z,49.05
2016-05-24T09:25:31.989Z,48.76
2016-05-24T09:26:32.038Z,48.66
2016-05-24T09:27:32.086Z,48.76
2016-05-24T09:28:32.153Z,48.57
2016-05-24T09:29:32.186Z,48.66
2016-05-24T09:30:32.267Z,48.57
2016-05-24T09:31:32.130Z,49.24
2016-05-24T09:32:32.350Z,48.66
2016-05-24T09:33:32.400Z,48.76
2016-05-24T09:34:32.466Z,48.85
2016-05-24T09:35:32.562Z,48.95
2016-05-24T09:36:32.548Z,48.76
2016-05-24T09:37:32.599Z,49.24
2016-05-24T09:38:32.632Z,49.15
2016-05-24T09:39:32.854Z,48.66
2016-05-24T09:40:32.607Z,48.76
2016-05-24T09:41:32.796Z,48.66
2016-05-24T09:42:32.846Z,48.76
2016-05-24T09:43:32.927Z,48.66
2016-05-24T09:44:32.945Z,48.76
2016-05-24T09:45:32.839Z,48.95
2016-05-24T09:46:33.153Z,48.66
2016-05-24T09:47:33.110Z,49.15
2016-05-24T09:48:33.160Z,48.76
2016-05-24T09:49:33.208Z,48.85
2016-05-24T09:50:33.118Z,48.66
2016-05-24T09:51:33.308Z,48.85
2016-05-24T09:52:33.373Z,48.66
2016-05-24T09:53:33.407Z,48.66
2016-05-24T09:54:33.456Z,48.47
2016-05-24T09:55:34.397Z,48.66
2016-05-24T09:56:33.556Z,48.66
2016-05-24T09:57:33.605Z,48.66
2016-05-24T09:58:33.670Z,48.76
2016-05-24T09:59:33.705Z,48.76
2016-05-24T10:00:34.239Z,48.95
2016-05-24T10:01:33.850Z,48.66
2016-05-24T10:02:33.713Z,48.76
2016-05-24T10:03:33.763Z,49.33
2016-05-24T10:04:33.968Z,49.43
2016-05-24T10:05:34.001Z,49.33
2016-05-24T10:06:37.096Z,49.33
2016-05-24T10:07:34.152Z,48.95
2016-05-24T10:08:34.208Z,49.33
2016-05-24T10:09:34.295Z,49.33
2016-05-24T10:10:34.367Z,48.95
2016-05-24T10:11:34.444Z,48.85
2016-05-24T10:12:34.487Z,48.85
2016-05-24T10:13:34.545Z,49.05
2016-05-24T10:14:34.601Z,49.05
2016-05-24T10:15:34.660Z,49.15
2016-05-24T10:16:34.730Z,49.15
2016-05-24T10:17:34.767Z,49.24
2016-05-24T10:18:34.803Z,49.33
2016-05-24T10:19:34.855Z,49.43
2016-05-24T10:20:34.924Z,49.24
2016-05-24T10:21:36.990Z,49.72
2016-05-24T10:22:35.057Z,49.72
2016-05-24T10:23:35.092Z,49.62
2016-05-24T10:24:35.142Z,49.91
2016-05-24T10:25:35.302Z,50.1
2016-05-24T10:26:37.962Z,50.01
2016-05-24T10:27:35.293Z,49.52
2016-05-24T10:28:35.343Z,49.72
2016-05-24T10:29:35.393Z,49.62
2016-05-24T10:30:35.677Z,50.2
2016-05-24T10:31:35.493Z,49.52
2016-05-24T10:32:35.543Z,49.52
2016-05-24T10:33:35.607Z,49.43
2016-05-24T10:34:35.657Z,49.72
2016-05-24T10:35:35.690Z,49.43
2016-05-24T10:36:35.756Z,49.33
2016-05-24T10:37:35.821Z,49.33
2016-05-24T10:38:35.840Z,49.62
2016-05-24T10:39:35.889Z,49.33
2016-05-24T10:40:35.954Z,49.62
2016-05-24T10:41:36.004Z,49.52
2016-05-24T10:42:36.053Z,49.91
2016-05-24T10:43:36.103Z,50.1
2016-05-24T10:44:36.153Z,50.1
2016-05-24T10:45:36.030Z,49.82
2016-05-24T10:46:36.267Z,49.43
2016-05-24T10:47:36.317Z,49.41
2016-05-24T10:48:36.367Z,49.43
2016-05-24T10:49:36.416Z,49.91
2016-05-24T10:50:36.466Z,50.01
2016-05-24T10:51:36.500Z,49.82
2016-05-24T10:52:36.565Z,49.6
2016-05-24T10:53:36.614Z,49.33
2016-05-24T10:54:36.663Z,49.31
2016-05-24T10:55:36.713Z,49.5
2016-05-24T10:56:36.607Z,49.43
2016-05-24T10:57:36.813Z,49.41
2016-05-24T10:58:36.846Z,49.69
2016-05-24T10:59:36.927Z,49.24
2016-05-24T11:00:36.976Z,49.41
2016-05-24T11:01:37.011Z,49.5
2016-05-24T11:02:36.935Z,49.33
2016-05-24T11:03:37.126Z,49.5
2016-05-24T11:04:37.191Z,49.41
2016-05-24T11:05:37.193Z,49.6
2016-05-24T11:06:37.306Z,49.31
2016-05-24T11:07:37.402Z,49.31
2016-05-24T11:08:37.358Z,49.5
2016-05-24T11:09:37.251Z,49.98
2016-05-24T11:10:37.535Z,50.01
2016-05-24T11:11:37.522Z,49.82
2016-05-24T11:12:37.572Z,50.01
2016-05-24T11:13:37.621Z,49.6
2016-05-24T11:14:37.515Z,49.41
2016-05-24T11:15:37.752Z,49.21
2016-05-24T11:16:37.613Z,49.43
2016-05-24T11:17:37.820Z,50.01
2016-05-24T11:18:37.900Z,50.01
2016-05-24T11:19:37.919Z,49.33
2016-05-24T11:20:37.969Z,50.1
2016-05-24T11:21:38.018Z,49.88
2016-05-24T11:22:37.911Z,49.91
2016-05-24T11:23:38.102Z,50.01
2016-05-24T11:24:38.026Z,50.17
2016-05-24T11:25:38.216Z,50.01
2016-05-24T11:26:38.266Z,49.82
2016-05-24T11:27:38.424Z,50.01
2016-05-24T11:28:38.365Z,49.88
2016-05-24T11:29:38.430Z,49.62
2016-05-24T11:30:38.511Z,49.82
2016-05-24T11:31:38.529Z,49.88
2016-05-24T11:32:38.579Z,50.01
2016-05-24T11:33:38.629Z,49.91
2016-05-24T11:34:38.679Z,49.82
2016-05-24T11:35:38.790Z,49.62
2016-05-24T11:36:38.620Z,49.91
2016-05-24T11:37:38.842Z,50.2
2016-05-24T11:38:38.954Z,49.82
2016-05-24T11:39:38.942Z,49.82
2016-05-24T11:40:38.975Z,49.82
2016-05-24T11:41:39.040Z,50.29
2016-05-24T11:42:39.075Z,50.29
2016-05-24T11:43:39.139Z,50.1
2016-05-24T11:44:39.017Z,49.6
2016-05-24T11:45:39.066Z,49.91
2016-05-24T11:46:39.319Z,50.01
2016-05-24T11:47:39.338Z,49.91
2016-05-24T11:48:39.372Z,50.01
2016-05-24T11:49:39.437Z,50.01
2016-05-24T11:50:39.487Z,49.69
2016-05-24T11:51:39.551Z,49.98
2016-05-24T11:52:39.570Z,50.01
2016-05-24T11:53:39.651Z,50.01
2016-05-24T11:54:39.685Z,50.27
2016-05-24T11:55:39.578Z,49.82
2016-05-24T11:56:39.783Z,50.39
2016-05-24T11:57:39.833Z,50.01
2016-05-24T11:58:39.883Z,49.82
2016-05-24T11:59:39.932Z,49.88
2016-05-24T12:00:39.826Z,50.08
2016-05-24T12:01:40.032Z,49.79
2016-05-24T12:02:40.143Z,50.27
2016-05-24T12:03:40.115Z,50.08
2016-05-24T12:04:40.196Z,50.17
2016-05-24T12:05:40.246Z,50.08
2016-05-24T12:06:40.295Z,50.37
2016-05-24T12:07:40.345Z,49.98
2016-05-24T12:08:40.316Z,49.88
2016-05-24T12:09:40.429Z,49.82
2016-05-24T12:10:40.478Z,49.88
2016-05-24T12:11:40.528Z,49.98
2016-05-24T12:12:40.608Z,49.88
2016-05-24T12:13:40.642Z,50.84
2016-05-24T12:14:40.692Z,50.84
2016-05-24T12:15:40.756Z,49.98
2016-05-24T12:16:40.791Z,49.98
2016-05-24T12:17:40.856Z,49.98
2016-05-24T12:18:40.906Z,49.88
2016-05-24T12:19:41.033Z,50.46
2016-05-24T12:20:40.832Z,50.08
2016-05-24T12:21:41.039Z,50.37
2016-05-24T12:22:41.197Z,50.46
2016-05-24T12:23:40.981Z,50.27
2016-05-24T12:24:41.202Z,49.79
2016-05-24T12:25:41.253Z,49.88
2016-05-24T12:26:41.349Z,50.08
2016-05-24T12:27:41.351Z,49.88
2016-05-24T12:28:41.401Z,50.56
2016-05-24T12:29:41.466Z,50.27
2016-05-24T12:30:41.344Z,50.17
2016-05-24T12:31:41.566Z,50.46
2016-05-24T12:32:41.584Z,50.37
2016-05-24T12:33:41.665Z,50.17
2016-05-24T12:34:41.699Z,50.17
2016-05-24T12:35:41.749Z,50.27
2016-05-24T12:36:41.813Z,50.17
2016-05-24T12:37:41.848Z,50.17
2016-05-24T12:38:41.896Z,50.08
2016-05-24T12:39:41.978Z,50.37
2016-05-24T12:40:41.996Z,50.27
2016-05-24T12:41:42.076Z,50.27
2016-05-24T12:42:42.111Z,50.17
2016-05-24T12:43:42.159Z,50.17
2016-05-24T12:44:42.194Z,50.17
2016-05-24T12:45:42.385Z,50.56
2016-05-24T12:46:42.293Z,50.37
2016-05-24T12:47:42.358Z,50.17
2016-05-24T12:48:42.408Z,50.56
2016-05-24T12:49:43.583Z,50.65
2016-05-24T12:50:42.508Z,50.65
2016-05-24T12:51:42.557Z,50.46
2016-05-24T12:52:42.606Z,50.56
2016-05-24T12:53:42.625Z,50.46
2016-05-24T12:54:42.565Z,50.46